Terminal Aerodrome Forecast
Issued by NWS

Home | Current Version | Previous Version | Text Only | Print | Product List | Glossary On
Versions: 1 2 3 4 5 6 7 8 9 10 11 12 13 14 15 16 17 18 19
000
FTPA31 PHFO 121740
TAFHLI
TAF
PHLI 121740Z 1218/1318 22011KT P6SM VCSH SCT025 BKN050
     FM121900 36013KT 6SM -SHRA SCT015 BKN025
      TEMPO 1219/1221 3SM SHRA BR BKN015 OVC025
     FM122200 36015KT P6SM VCSH SCT025 BKN040
     FM130500 34009KT P6SM FEW025 SCT040=

USA.gov is the U.S. government's official web portal to all federal, state and local government web resources and services.